createdAt,value
2022-10-22T00:01:29.478Z,97429.00
2022-10-22T00:05:31.188Z,97440.00
2022-10-22T00:09:33.027Z,97447.00
2022-10-22T00:13:34.247Z,97441.00
2022-10-22T00:17:35.830Z,97424.00
2022-10-22T00:21:36.897Z,97415.00
2022-10-22T00:25:38.725Z,97414.00
2022-10-22T00:29:39.980Z,97411.00
2022-10-22T00:33:41.863Z,97409.00
2022-10-22T00:37:43.049Z,97394.00
2022-10-22T00:41:46.444Z,97386.00
2022-10-22T00:45:48.026Z,97394.00
2022-10-22T00:49:50.961Z,97394.00
2022-10-22T00:53:56.271Z,97388.00
2022-10-22T00:57:58.373Z,97394.00
2022-10-22T01:01:59.933Z,97381.00
2022-10-22T01:06:03.536Z,97404.00
2022-10-22T01:10:14.349Z,97402.00
2022-10-22T01:14:36.697Z,97400.00
2022-10-22T01:19:01.529Z,97398.00
2022-10-22T01:23:23.516Z,97429.00
2022-10-22T01:27:48.948Z,97423.00
2022-10-22T01:31:53.833Z,97321.00
2022-10-22T01:35:55.771Z,97436.00
2022-10-22T01:40:00.565Z,97445.00
2022-10-22T01:44:01.938Z,97431.00
2022-10-22T01:48:26.814Z,97438.00
2022-10-22T01:53:05.150Z,97442.00
2022-10-22T01:57:45.502Z,97430.00
2022-10-22T02:02:05.647Z,97427.00
2022-10-22T02:06:10.425Z,97438.00
2022-10-22T02:10:12.431Z,97443.00
2022-10-22T02:14:16.313Z,97440.00
2022-10-22T02:18:21.037Z,97448.00
2022-10-22T02:22:23.414Z,97430.00
2022-10-22T02:26:33.986Z,97417.00
2022-10-22T02:30:37.310Z,97395.00
2022-10-22T02:34:38.653Z,97412.00
2022-10-22T02:38:41.091Z,97415.00
2022-10-22T02:42:43.405Z,97438.00
2022-10-22T02:46:44.501Z,97448.00
2022-10-22T02:50:45.562Z,97441.00
2022-10-22T02:54:46.647Z,97446.00
2022-10-22T02:58:47.926Z,97468.00
2022-10-22T03:02:49.052Z,97457.00
2022-10-22T03:06:50.193Z,97472.00
2022-10-22T03:10:51.353Z,97457.00
2022-10-22T03:14:52.365Z,97441.00
2022-10-22T03:18:53.342Z,97440.00
2022-10-22T03:22:55.434Z,97454.00
2022-10-22T03:26:57.380Z,97453.00
2022-10-22T03:30:58.403Z,97457.00
2022-10-22T03:39:01.789Z,97455.00
2022-10-22T03:43:02.948Z,97460.00
2022-10-22T03:47:04.006Z,97459.00
2022-10-22T03:51:05.377Z,97469.00
2022-10-22T03:55:08.162Z,97480.00
2022-10-22T03:59:09.057Z,97483.00
2022-10-22T04:03:10.235Z,97498.00
2022-10-22T04:07:11.399Z,97478.00
2022-10-22T04:11:13.708Z,97482.00
2022-10-22T04:15:15.105Z,97485.00
2022-10-22T04:19:16.333Z,97489.00
2022-10-22T04:23:17.510Z,97496.00
2022-10-22T04:27:18.659Z,97478.00
2022-10-22T04:31:22.731Z,97499.00
2022-10-22T04:35:26.781Z,97491.00
2022-10-22T04:39:26.922Z,97521.00
2022-10-22T04:43:28.010Z,97527.00
2022-10-22T04:47:29.073Z,97539.00
2022-10-22T04:51:31.213Z,97531.00
2022-10-22T04:55:32.177Z,97531.00
2022-10-22T04:59:33.275Z,97533.00
2022-10-22T05:03:34.301Z,97533.00
2022-10-22T05:07:35.357Z,97532.00
2022-10-22T05:11:41.004Z,97529.00
2022-10-22T05:15:41.937Z,97540.00
2022-10-22T05:19:43.005Z,97531.00
2022-10-22T05:23:45.823Z,97533.00
2022-10-22T05:27:49.896Z,97544.00
2022-10-22T05:31:51.307Z,97551.00
2022-10-22T05:35:53.046Z,97556.00
2022-10-22T05:40:01.836Z,97559.00
2022-10-22T05:43:59.027Z,97555.00
2022-10-22T05:48:00.125Z,97559.00
2022-10-22T05:52:01.111Z,97586.00
2022-10-22T05:56:05.151Z,97570.00
2022-10-22T06:00:08.239Z,97559.00
2022-10-22T06:04:12.431Z,97566.00
2022-10-22T06:08:18.268Z,97576.00
2022-10-22T06:12:17.251Z,97568.00
2022-10-22T06:16:18.642Z,97567.00
2022-10-22T06:20:20.339Z,97581.00
2022-10-22T06:24:21.608Z,97585.00
2022-10-22T06:32:23.836Z,97603.00
2022-10-22T06:36:25.368Z,97618.00
2022-10-22T06:40:26.370Z,97619.00
2022-10-22T06:44:27.736Z,97620.00
2022-10-22T06:48:29.454Z,97634.00
2022-10-22T06:52:30.547Z,97629.00
2022-10-22T06:56:32.203Z,97633.00
2022-10-22T07:04:34.570Z,97660.00
2022-10-22T07:08:36.272Z,97665.00
2022-10-22T07:12:37.597Z,97665.00
2022-10-22T07:16:41.249Z,97674.00
2022-10-22T07:20:42.279Z,97675.00
2022-10-22T07:24:43.466Z,97683.00
2022-10-22T07:28:46.211Z,97688.00
2022-10-22T07:32:48.214Z,97642.00
2022-10-22T07:36:49.589Z,97695.00
2022-10-22T07:40:51.684Z,97703.00
2022-10-22T07:44:52.991Z,97710.00
2022-10-22T07:48:54.731Z,97707.00
2022-10-22T07:52:58.203Z,97720.00
2022-10-22T07:56:59.832Z,97732.00
2022-10-22T08:01:02.097Z,97742.00
2022-10-22T08:05:03.806Z,97737.00
2022-10-22T08:09:05.135Z,97736.00
2022-10-22T08:13:07.473Z,97742.00
2022-10-22T08:17:08.622Z,97745.00
2022-10-22T08:21:11.718Z,97741.00
2022-10-22T08:25:13.503Z,97749.00
2022-10-22T08:29:15.036Z,97787.00
2022-10-22T08:33:16.223Z,97755.00
2022-10-22T08:37:17.992Z,97786.00
2022-10-22T08:41:22.241Z,97766.00
2022-10-22T08:45:42.505Z,97786.00
2022-10-22T08:49:44.822Z,97768.00
2022-10-22T08:54:07.732Z,97773.00
2022-10-22T08:58:20.177Z,97775.00
2022-10-22T09:02:37.923Z,97793.00
2022-10-22T09:06:43.415Z,97795.00
2022-10-22T09:10:51.319Z,97792.00
2022-10-22T09:14:52.618Z,97793.00
2022-10-22T09:19:12.959Z,97788.00
2022-10-22T09:23:27.163Z,97798.00
2022-10-22T09:27:30.958Z,97816.00
2022-10-22T09:31:33.354Z,97829.00
2022-10-22T09:36:06.079Z,97807.00
2022-10-22T09:40:11.433Z,97812.00
2022-10-22T09:44:12.596Z,97810.00
2022-10-22T09:48:27.923Z,97817.00
2022-10-22T09:52:34.966Z,97934.00
2022-10-22T09:56:42.242Z,97816.00
2022-10-22T10:00:46.806Z,97816.00
2022-10-22T10:04:51.622Z,97822.00
2022-10-22T10:08:52.977Z,97832.00
2022-10-22T10:13:01.085Z,97832.00
2022-10-22T10:17:17.835Z,97844.00
2022-10-22T10:21:51.474Z,97840.00
2022-10-22T10:26:08.722Z,97836.00
2022-10-22T10:30:16.723Z,97840.00
2022-10-22T10:34:31.505Z,97833.00
2022-10-22T10:38:48.697Z,97840.00
2022-10-22T10:42:59.686Z,97845.00
2022-10-22T10:47:22.776Z,97842.00
2022-10-22T10:51:46.402Z,97847.00
2022-10-22T10:55:54.178Z,97842.00
2022-10-22T11:00:15.707Z,97842.00
2022-10-22T11:04:40.117Z,97827.00
2022-10-22T11:08:52.895Z,97829.00
2022-10-22T11:12:58.408Z,97834.00
2022-10-22T11:17:15.787Z,97833.00
2022-10-22T11:21:26.546Z,97828.00
2022-10-22T11:25:38.278Z,97827.00
2022-10-22T11:29:45.835Z,97843.00
2022-10-22T11:34:04.888Z,97825.00
2022-10-22T11:38:05.405Z,97844.00
2022-10-22T11:42:13.193Z,97856.00
2022-10-22T11:46:18.072Z,97788.00
2022-10-22T11:50:24.522Z,97835.00
2022-10-22T11:54:43.132Z,97842.00
2022-10-22T11:58:46.945Z,97839.00
2022-10-22T12:02:52.438Z,97845.00
2022-10-22T12:06:56.822Z,97837.00
2022-10-22T12:11:01.608Z,97844.00
2022-10-22T12:15:04.779Z,97833.00
2022-10-22T12:19:17.853Z,97834.00
2022-10-22T12:23:22.636Z,97827.00
2022-10-22T12:27:36.393Z,97830.00
2022-10-22T12:31:40.000Z,97824.00
2022-10-22T12:35:44.498Z,97821.00
2022-10-22T12:39:45.968Z,97816.00
2022-10-22T12:43:47.030Z,97824.00
2022-10-22T12:47:50.510Z,97834.00
2022-10-22T12:51:51.655Z,97837.00
2022-10-22T12:55:55.516Z,97831.00
2022-10-22T12:59:56.424Z,97837.00
2022-10-22T13:04:30.595Z,97838.00
2022-10-22T13:08:33.518Z,97837.00
2022-10-22T13:12:36.541Z,97843.00
2022-10-22T13:16:39.177Z,97848.00
2022-10-22T13:20:53.039Z,97851.00
2022-10-22T13:24:59.313Z,97860.00
2022-10-22T13:29:02.264Z,97847.00
2022-10-22T13:33:07.162Z,97863.00
2022-10-22T13:37:08.829Z,97857.00
2022-10-22T13:41:26.063Z,97849.00
2022-10-22T13:45:27.023Z,97851.00
2022-10-22T13:49:28.003Z,97862.00
2022-10-22T13:53:30.346Z,97861.00
2022-10-22T13:57:31.201Z,97861.00
2022-10-22T14:01:32.396Z,97856.00
2022-10-22T14:05:33.765Z,97856.00
2022-10-22T14:09:34.705Z,97860.00
2022-10-22T14:13:35.578Z,97868.00
2022-10-22T14:17:37.851Z,97857.00
2022-10-22T14:21:38.881Z,97857.00
2022-10-22T14:25:40.264Z,97855.00
2022-10-22T14:29:41.477Z,97873.00
2022-10-22T14:33:42.936Z,97856.00
2022-10-22T14:37:44.029Z,97853.00
2022-10-22T14:41:44.912Z,97855.00
2022-10-22T14:45:45.899Z,97847.00
2022-10-22T14:49:46.826Z,97852.00
2022-10-22T14:53:48.351Z,97859.00
2022-10-22T14:57:49.554Z,97863.00
2022-10-22T15:01:50.710Z,97858.00
2022-10-22T15:05:53.385Z,97863.00
2022-10-22T15:09:54.304Z,97866.00
2022-10-22T15:13:55.204Z,97864.00
2022-10-22T15:17:56.251Z,97864.00
2022-10-22T15:21:57.121Z,97876.00
2022-10-22T15:25:58.503Z,97881.00
2022-10-22T15:29:59.485Z,97882.00
2022-10-22T15:34:01.940Z,97889.00
2022-10-22T15:38:05.151Z,97889.00
2022-10-22T15:42:06.516Z,97892.00
2022-10-22T15:46:11.228Z,97886.00
2022-10-22T15:50:12.147Z,97892.00
2022-10-22T15:54:15.863Z,97882.00
2022-10-22T15:58:17.047Z,97888.00
2022-10-22T16:02:18.211Z,97893.00
2022-10-22T16:06:19.285Z,97903.00
2022-10-22T16:10:20.485Z,97886.00
2022-10-22T16:14:22.889Z,97891.00
2022-10-22T16:18:23.735Z,97883.00
2022-10-22T16:22:24.836Z,97889.00
2022-10-22T16:26:25.728Z,97894.00
2022-10-22T16:30:26.650Z,97904.00
2022-10-22T16:34:27.863Z,97901.00
2022-10-22T16:38:28.771Z,97894.00
2022-10-22T16:42:29.739Z,97902.00
2022-10-22T16:46:31.705Z,97894.00
2022-10-22T16:50:32.764Z,97908.00
2022-10-22T16:54:33.644Z,97906.00
2022-10-22T16:58:34.593Z,97904.00
2022-10-22T17:02:36.722Z,97904.00
2022-10-22T17:06:37.916Z,97915.00
2022-10-22T17:10:39.221Z,97917.00
2022-10-22T17:14:40.278Z,97927.00
2022-10-22T17:18:42.276Z,97931.00
2022-10-22T17:22:43.767Z,97940.00
2022-10-22T17:26:45.944Z,97938.00
2022-10-22T17:30:47.094Z,97937.00
2022-10-22T17:34:48.211Z,97945.00
2022-10-22T17:38:52.387Z,97945.00
2022-10-22T17:42:53.447Z,97944.00
2022-10-22T17:46:54.406Z,97942.00
2022-10-22T17:50:58.386Z,97939.00
2022-10-22T17:54:58.152Z,97946.00
2022-10-22T17:58:59.279Z,97949.00
2022-10-22T18:03:00.591Z,97954.00
2022-10-22T18:07:01.603Z,97957.00
2022-10-22T18:11:08.375Z,97952.00
2022-10-22T18:15:10.049Z,97945.00
2022-10-22T18:19:17.462Z,97950.00
2022-10-22T18:23:18.941Z,97950.00
2022-10-22T18:27:19.893Z,97951.00
2022-10-22T18:31:23.173Z,97951.00
2022-10-22T18:35:24.289Z,97949.00
2022-10-22T18:39:25.355Z,97944.00
2022-10-22T18:43:26.492Z,97939.00
2022-10-22T18:47:27.467Z,97951.00
2022-10-22T18:51:30.905Z,97946.00
2022-10-22T18:55:33.187Z,97939.00
2022-10-22T18:59:34.274Z,97932.00
2022-10-22T19:03:35.984Z,97943.00
2022-10-22T19:07:37.049Z,97950.00
2022-10-22T19:11:38.044Z,97947.00
2022-10-22T19:15:39.109Z,97933.00
2022-10-22T19:19:40.447Z,97950.00
2022-10-22T19:23:42.828Z,97941.00
2022-10-22T19:27:44.263Z,97937.00
2022-10-22T19:31:46.887Z,97943.00
2022-10-22T19:35:47.860Z,97939.00
2022-10-22T19:39:49.239Z,97940.00
2022-10-22T19:43:52.387Z,97943.00
2022-10-22T19:47:53.258Z,97926.00
2022-10-22T19:51:54.227Z,97933.00
2022-10-22T19:55:57.022Z,97944.00
2022-10-22T19:59:57.981Z,97946.00
2022-10-22T20:04:00.781Z,97942.00
2022-10-22T20:08:03.632Z,97942.00
2022-10-22T20:12:05.057Z,97936.00
2022-10-22T20:16:06.507Z,97935.00
2022-10-22T20:20:07.673Z,97952.00
2022-10-22T20:24:09.974Z,97948.00
2022-10-22T20:28:13.056Z,97955.00
2022-10-22T20:32:14.148Z,97955.00
2022-10-22T20:36:20.870Z,97958.00
2022-10-22T20:40:23.743Z,97954.00
2022-10-22T20:44:24.829Z,97948.00
2022-10-22T20:48:29.683Z,97964.00
2022-10-22T20:52:30.555Z,97971.00
2022-10-22T20:56:32.579Z,97959.00
2022-10-22T21:00:35.347Z,97956.00
2022-10-22T21:04:36.621Z,97953.00
2022-10-22T21:08:37.648Z,97946.00
2022-10-22T21:12:40.857Z,97942.00
2022-10-22T21:16:43.507Z,97939.00
2022-10-22T21:20:44.492Z,97933.00
2022-10-22T21:24:45.342Z,97927.00
2022-10-22T21:28:46.789Z,97929.00
2022-10-22T21:32:47.616Z,97925.00
2022-10-22T21:36:48.771Z,97929.00
2022-10-22T21:40:50.216Z,97931.00
2022-10-22T21:44:51.225Z,97928.00
2022-10-22T21:48:57.643Z,97930.00
2022-10-22T21:52:58.608Z,97935.00
2022-10-22T21:56:59.686Z,97943.00
2022-10-22T22:01:00.735Z,97947.00
2022-10-22T22:05:01.798Z,97948.00
2022-10-22T22:09:04.351Z,97952.00
2022-10-22T22:13:05.436Z,97951.00
2022-10-22T22:17:06.382Z,97963.00
2022-10-22T22:21:10.448Z,97969.00
2022-10-22T22:25:11.405Z,97963.00
2022-10-22T22:29:12.345Z,97955.00
2022-10-22T22:33:13.197Z,97948.00
2022-10-22T22:37:14.140Z,97941.00
2022-10-22T22:41:14.981Z,97942.00
2022-10-22T22:45:15.977Z,97933.00
2022-10-22T22:49:17.128Z,97931.00
2022-10-22T22:53:18.100Z,97928.00
2022-10-22T22:57:18.971Z,97922.00
2022-10-22T23:01:31.436Z,97927.00
2022-10-22T23:05:35.640Z,97925.00
2022-10-22T23:09:36.733Z,97928.00
2022-10-22T23:13:38.487Z,97914.00
2022-10-22T23:17:39.511Z,97898.00
2022-10-22T23:21:44.591Z,97895.00
2022-10-22T23:25:45.536Z,97902.00
2022-10-22T23:29:46.597Z,97896.00
2022-10-22T23:33:48.452Z,97899.00
2022-10-22T23:37:49.413Z,97900.00
2022-10-22T23:41:51.481Z,97896.00
2022-10-22T23:45:53.116Z,97894.00
2022-10-22T23:49:53.981Z,97887.00
2022-10-22T23:53:58.053Z,97887.00
2022-10-22T23:57:58.988Z,97883.00
